Airport View

Enter AWOS ICAO identifier for current METAR.

ex. KFNL

KLAA 041353Z AUTO 29012KT 10SM CLR 21/15 A3012 RMK AO2 SLP152 T02110150

4 Jul 2020 14:00

Frequency: 135.625

Phone: 719-336-3854

Other Area AWOS: KLHX - K3K3 - KSPD - KJHN

TAF KPUB 041144Z 0412/0512 25005KT P6SM BKN150 FM041500 13008KT P6SM SCT150 FM042200 14010KT P6SM VCTS SCT050 BKN080CB TEMPO 0422/0424 3SM -TSRA BKN050CB FM050000 33015G25KT P6SM VCSH BKN070 FM050300 28005KT P6SM SCT090 BKN150